createdAt,value
2023-08-29T10:02:01.548Z,21.74
2023-08-29T10:03:01.599Z,21.82
2023-08-29T10:04:01.449Z,21.94
2023-08-29T10:05:01.428Z,21.85
2023-08-29T10:06:01.437Z,21.61
2023-08-29T10:07:01.420Z,21.34
2023-08-29T10:08:01.388Z,21.20
2023-08-29T10:09:01.377Z,21.17
2023-08-29T10:10:01.377Z,21.34
2023-08-29T10:11:01.365Z,21.44
2023-08-29T10:12:01.353Z,21.46
2023-08-29T10:13:01.322Z,21.48
2023-08-29T10:14:01.341Z,21.39
2023-08-29T10:15:01.299Z,21.27
2023-08-29T10:16:01.292Z,21.26
2023-08-29T10:17:03.099Z,21.19
2023-08-29T10:18:01.292Z,21.20
2023-08-29T10:19:01.245Z,21.16
2023-08-29T10:20:01.262Z,21.13
2023-08-29T10:21:03.661Z,21.09
2023-08-29T10:22:01.222Z,21.04
2023-08-29T10:23:01.185Z,21.02
2023-08-29T10:24:01.179Z,21.13
2023-08-29T10:25:01.170Z,21.41
2023-08-29T10:26:01.167Z,21.64
2023-08-29T10:27:01.139Z,21.75
2023-08-29T10:28:01.157Z,21.79
2023-08-29T10:29:01.112Z,21.81
2023-08-29T10:30:01.117Z,21.88
2023-08-29T10:31:01.175Z,21.71
2023-08-29T10:32:01.084Z,21.34
2023-08-29T10:33:01.117Z,21.29
2023-08-29T10:34:01.055Z,21.19
2023-08-29T10:35:01.050Z,21.13
2023-08-29T10:36:01.037Z,21.08
2023-08-29T10:37:01.036Z,21.09
2023-08-29T10:38:01.006Z,21.05
2023-08-29T10:39:00.980Z,20.95
2023-08-29T10:40:00.978Z,20.87
2023-08-29T10:41:00.949Z,20.68
2023-08-29T10:42:00.955Z,20.64
2023-08-29T10:43:00.923Z,20.68
2023-08-29T10:44:00.932Z,20.71
2023-08-29T10:45:00.910Z,20.81
2023-08-29T10:46:00.911Z,20.81
2023-08-29T10:47:00.885Z,20.71
2023-08-29T10:48:00.889Z,20.51
2023-08-29T10:49:00.857Z,20.61
2023-08-29T10:50:00.903Z,20.74
2023-08-29T10:51:00.825Z,20.76
2023-08-29T10:52:00.814Z,20.68
2023-08-29T10:53:00.791Z,20.77
2023-08-29T10:54:00.799Z,20.77
2023-08-29T10:55:00.768Z,20.72
2023-08-29T10:56:00.762Z,20.79
2023-08-29T10:57:00.796Z,20.66
2023-08-29T10:58:00.733Z,20.64
2023-08-29T10:59:00.731Z,20.74
2023-08-29T11:00:00.704Z,20.84
2023-08-29T11:01:00.734Z,20.90
2023-08-29T11:02:07.757Z,21.05
2023-08-29T11:03:00.706Z,21.66
2023-08-29T11:04:00.730Z,22.02
2023-08-29T11:05:00.675Z,22.14
2023-08-29T11:06:00.713Z,22.29
2023-08-29T11:07:00.637Z,22.34
2023-08-29T11:08:00.636Z,22.62
2023-08-29T11:09:00.587Z,22.64
2023-08-29T11:10:00.581Z,22.53
2023-08-29T11:11:00.557Z,23.04
2023-08-29T11:12:00.548Z,23.65
2023-08-29T11:13:00.539Z,24.16
2023-08-29T11:14:00.527Z,24.39
2023-08-29T11:15:00.518Z,24.67
2023-08-29T11:16:00.498Z,24.82
2023-08-29T11:17:00.484Z,24.88
2023-08-29T11:18:00.539Z,24.85
2023-08-29T11:19:00.450Z,24.60
2023-08-29T11:20:00.444Z,23.89
2023-08-29T11:21:00.425Z,23.29
2023-08-29T11:22:00.429Z,23.46
2023-08-29T11:23:00.404Z,23.40
2023-08-29T11:24:15.060Z,23.79
2023-08-29T11:25:01.389Z,24.12
2023-08-29T11:26:00.381Z,24.41
2023-08-29T11:27:00.366Z,24.39
2023-08-29T11:28:00.340Z,23.98
2023-08-29T11:29:00.331Z,23.77
2023-08-29T11:30:16.540Z,24.00
2023-08-29T11:31:01.327Z,24.24
2023-08-29T11:32:00.282Z,24.59
2023-08-29T11:33:00.296Z,24.77
2023-08-29T11:34:00.257Z,25.02
2023-08-29T11:35:00.249Z,25.25
2023-08-29T11:36:00.244Z,24.97
2023-08-29T11:37:00.220Z,24.24
2023-08-29T11:38:00.204Z,23.43
2023-08-29T11:39:00.191Z,22.92
2023-08-29T11:40:00.204Z,22.53
2023-08-29T11:41:17.202Z,22.23
2023-08-29T11:42:11.598Z,21.85
2023-08-29T11:43:30.975Z,21.46
2023-08-29T11:44:49.635Z,21.19
2023-08-29T11:45:26.314Z,20.87
2023-08-29T11:46:01.236Z,20.59
2023-08-29T11:47:00.086Z,20.39
2023-08-29T11:48:00.098Z,20.31
2023-08-29T11:49:00.070Z,20.28
2023-08-29T11:50:00.078Z,20.21
2023-08-29T11:51:00.036Z,20.21
2023-08-29T11:52:00.041Z,20.23
2023-08-29T11:53:00.013Z,20.27
2023-08-29T11:53:59.992Z,20.31
2023-08-29T11:54:59.994Z,20.30
2023-08-29T11:55:59.960Z,20.27
2023-08-29T11:56:59.952Z,20.31
2023-08-29T11:57:59.949Z,20.38
2023-08-29T11:58:59.938Z,20.35
2023-08-29T11:59:59.916Z,20.25
2023-08-29T12:00:59.906Z,20.13
2023-08-29T12:01:59.902Z,20.12
2023-08-29T12:02:59.897Z,20.16
2023-08-29T12:03:59.882Z,20.16
2023-08-29T12:04:59.851Z,20.16
2023-08-29T12:05:59.843Z,20.08
2023-08-29T12:06:59.818Z,20.02
2023-08-29T12:07:59.800Z,20.00
2023-08-29T12:09:01.132Z,19.97
2023-08-29T12:09:59.778Z,19.91
2023-08-29T12:10:59.773Z,19.80
2023-08-29T12:11:59.748Z,19.79
2023-08-29T12:12:59.757Z,19.84
2023-08-29T12:13:59.735Z,19.90
2023-08-29T12:14:59.759Z,19.94
2023-08-29T12:15:59.705Z,19.94
2023-08-29T12:16:59.697Z,19.97
2023-08-29T12:17:59.746Z,20.02
2023-08-29T12:18:59.670Z,20.05
2023-08-29T12:19:59.645Z,20.05
2023-08-29T12:21:01.064Z,20.10
2023-08-29T12:21:59.627Z,20.18
2023-08-29T12:22:59.628Z,20.23
2023-08-29T12:23:59.594Z,20.27
2023-08-29T12:24:59.751Z,20.30
2023-08-29T12:25:59.571Z,20.33
2023-08-29T12:26:59.573Z,20.30
2023-08-29T12:27:59.560Z,20.31
2023-08-29T12:28:59.539Z,20.31
2023-08-29T12:29:59.514Z,20.39
2023-08-29T12:30:59.605Z,20.43
2023-08-29T12:31:59.508Z,20.43
2023-08-29T12:32:59.536Z,20.47
2023-08-29T12:33:59.467Z,20.50
2023-08-29T12:34:59.459Z,20.59
2023-08-29T12:35:59.449Z,20.61
2023-08-29T12:36:59.447Z,20.64
2023-08-29T12:37:59.423Z,20.71
2023-08-29T12:38:59.400Z,20.84
2023-08-29T12:39:59.385Z,20.90
2023-08-29T12:40:59.400Z,20.95
2023-08-29T12:41:59.363Z,20.95
2023-08-29T12:42:59.346Z,21.01
2023-08-29T12:43:59.331Z,21.06
2023-08-29T12:44:59.885Z,21.04
2023-08-29T12:46:00.609Z,20.89
2023-08-29T12:46:59.297Z,20.84
2023-08-29T12:47:59.329Z,20.83
2023-08-29T12:48:59.276Z,20.66
2023-08-29T12:49:59.261Z,20.64
2023-08-29T12:50:59.258Z,20.62
2023-08-29T12:51:59.236Z,20.64
2023-08-29T12:52:59.222Z,20.76
2023-08-29T12:53:59.205Z,20.87
2023-08-29T12:54:59.206Z,20.96
2023-08-29T12:55:59.183Z,21.04
2023-08-29T12:56:59.180Z,21.11
2023-08-29T12:57:59.150Z,21.19
2023-08-29T12:58:59.138Z,21.20
2023-08-29T12:59:59.142Z,21.21
2023-08-29T13:00:59.126Z,21.26
2023-08-29T13:01:59.156Z,21.32
2023-08-29T13:02:59.148Z,21.36
2023-08-29T13:03:59.068Z,21.48
2023-08-29T13:04:59.071Z,21.61
2023-08-29T13:05:59.046Z,21.78
2023-08-29T13:06:59.034Z,21.64
2023-08-29T13:07:59.017Z,21.50
2023-08-29T13:08:59.023Z,21.45
2023-08-29T13:09:59.005Z,21.39
2023-08-29T13:10:58.983Z,21.16
2023-08-29T13:11:58.963Z,21.06
2023-08-29T13:12:58.973Z,21.08
2023-08-29T13:13:58.949Z,21.05
2023-08-29T13:14:58.925Z,21.05
2023-08-29T13:15:58.981Z,21.11
2023-08-29T13:16:58.910Z,21.21
2023-08-29T13:17:58.910Z,21.20
2023-08-29T13:18:58.890Z,21.21
2023-08-29T13:19:58.859Z,21.35
2023-08-29T13:20:58.852Z,21.39
2023-08-29T13:21:58.850Z,21.54
2023-08-29T13:22:58.833Z,21.60
2023-08-29T13:23:58.810Z,21.69
2023-08-29T13:24:58.794Z,21.69
2023-08-29T13:25:58.782Z,21.81
2023-08-29T13:26:58.783Z,21.88
2023-08-29T13:27:58.760Z,21.91
2023-08-29T13:28:58.769Z,22.01
2023-08-29T13:29:58.728Z,22.27
2023-08-29T13:30:58.719Z,22.65
2023-08-29T13:31:58.726Z,22.80
2023-08-29T13:32:58.755Z,22.87
2023-08-29T13:33:58.681Z,22.94
2023-08-29T13:34:58.668Z,23.22
2023-08-29T13:35:58.660Z,23.53
2023-08-29T13:36:58.673Z,23.85
2023-08-29T13:37:58.631Z,24.01
2023-08-29T13:38:58.610Z,24.07
2023-08-29T13:39:58.596Z,23.77
2023-08-29T13:40:58.584Z,23.26
2023-08-29T13:41:58.580Z,23.22
2023-08-29T13:42:58.563Z,22.84
2023-08-29T13:43:58.542Z,22.80
2023-08-29T13:44:58.532Z,22.80
2023-08-29T13:45:58.559Z,22.89
2023-08-29T13:46:58.547Z,23.08
2023-08-29T13:47:58.569Z,23.27
2023-08-29T13:48:58.502Z,23.57
2023-08-29T13:49:58.465Z,23.67
2023-08-29T13:50:58.465Z,23.46
2023-08-29T13:52:00.850Z,23.68
2023-08-29T13:52:58.425Z,23.95
2023-08-29T13:53:58.423Z,24.19
2023-08-29T13:54:58.454Z,24.29
2023-08-29T13:55:58.397Z,24.05
2023-08-29T13:56:58.378Z,23.87
2023-08-29T13:57:58.357Z,24.20
2023-08-29T13:58:58.354Z,24.07
2023-08-29T13:59:58.342Z,23.62
2023-08-29T14:00:58.370Z,23.64
2023-08-29T14:01:58.308Z,23.90
2023-08-29T14:02:58.375Z,24.13
2023-08-29T14:03:58.316Z,23.75
2023-08-29T14:04:58.289Z,23.70
2023-08-29T14:05:58.261Z,23.90
2023-08-29T14:06:58.243Z,24.10
2023-08-29T14:07:58.230Z,23.72
2023-08-29T14:08:58.218Z,22.99
2023-08-29T14:09:58.220Z,22.35
2023-08-29T14:10:58.188Z,21.92
2023-08-29T14:11:58.177Z,21.97
2023-08-29T14:12:58.172Z,22.02
2023-08-29T14:13:58.158Z,22.06
2023-08-29T14:14:58.150Z,22.01
2023-08-29T14:15:58.192Z,21.66
2023-08-29T14:16:58.110Z,21.51
2023-08-29T14:17:58.129Z,21.46
2023-08-29T14:18:58.094Z,21.34
2023-08-29T14:19:58.242Z,21.50
2023-08-29T14:20:58.058Z,21.74
2023-08-29T14:21:58.057Z,21.75
2023-08-29T14:22:58.034Z,21.46
2023-08-29T14:23:58.044Z,21.09
2023-08-29T14:24:58.007Z,20.95
2023-08-29T14:25:58.146Z,20.89
2023-08-29T14:26:57.989Z,20.89
2023-08-29T14:27:57.987Z,21.23
2023-08-29T14:28:57.971Z,21.48
2023-08-29T14:29:57.953Z,21.67
2023-08-29T14:30:57.968Z,21.66
2023-08-29T14:31:57.925Z,21.45
2023-08-29T14:32:57.946Z,21.27
2023-08-29T14:33:57.890Z,21.45
2023-08-29T14:34:57.870Z,21.76
2023-08-29T14:35:57.881Z,22.01
2023-08-29T14:36:57.843Z,22.25
2023-08-29T14:37:57.854Z,22.41
2023-08-29T14:39:00.440Z,22.64
2023-08-29T14:39:57.822Z,22.75
2023-08-29T14:40:57.799Z,22.89
2023-08-29T14:41:57.839Z,22.75
2023-08-29T14:42:57.781Z,22.89
2023-08-29T14:43:57.766Z,23.27
2023-08-29T14:44:57.739Z,23.53
2023-08-29T14:45:57.729Z,23.67
2023-08-29T14:46:57.786Z,23.77
2023-08-29T14:47:57.739Z,24.31
2023-08-29T14:48:57.692Z,24.98
2023-08-29T14:49:57.691Z,25.50
2023-08-29T14:50:57.660Z,26.18
2023-08-29T14:51:57.678Z,26.25
2023-08-29T14:52:57.636Z,26.58
2023-08-29T14:53:57.631Z,26.11
2023-08-29T14:54:57.612Z,25.68
2023-08-29T14:55:57.610Z,25.42
2023-08-29T14:56:57.591Z,25.43
2023-08-29T14:57:57.594Z,25.05
2023-08-29T14:58:57.559Z,25.19
2023-08-29T14:59:57.549Z,25.69
2023-08-29T15:00:57.662Z,26.21
2023-08-29T15:01:57.522Z,26.08
2023-08-29T15:02:57.691Z,25.87
2023-08-29T15:03:57.681Z,25.77
2023-08-29T15:04:57.493Z,25.30
2023-08-29T15:05:57.487Z,24.76
2023-08-29T15:06:57.463Z,23.83
2023-08-29T15:07:57.464Z,23.68
2023-08-29T15:08:57.430Z,23.75
2023-08-29T15:09:57.422Z,23.50
2023-08-29T15:10:57.422Z,22.89
2023-08-29T15:11:57.395Z,22.41
2023-08-29T15:12:57.393Z,22.13
2023-08-29T15:13:57.374Z,21.94
2023-08-29T15:14:57.365Z,21.79
2023-08-29T15:15:57.394Z,21.82
2023-08-29T15:16:57.332Z,21.92
2023-08-29T15:17:57.361Z,21.99
2023-08-29T15:18:57.303Z,21.92
2023-08-29T15:19:57.300Z,21.90
2023-08-29T15:20:57.283Z,21.97
2023-08-29T15:21:57.278Z,22.13
2023-08-29T15:22:57.255Z,22.22
2023-08-29T15:23:57.263Z,22.27
2023-08-29T15:24:57.241Z,22.16
2023-08-29T15:25:57.215Z,22.19
2023-08-29T15:26:57.199Z,22.10
2023-08-29T15:27:57.198Z,22.10
2023-08-29T15:28:57.184Z,22.14
2023-08-29T15:29:57.171Z,22.19
2023-08-29T15:30:57.149Z,22.19
2023-08-29T15:31:57.172Z,22.16
2023-08-29T15:32:57.162Z,22.13
2023-08-29T15:33:57.180Z,22.09
2023-08-29T15:34:57.108Z,22.06
2023-08-29T15:35:57.095Z,21.98
2023-08-29T15:36:57.064Z,21.85
2023-08-29T15:37:57.064Z,21.79
2023-08-29T15:38:57.057Z,22.07
2023-08-29T15:39:57.032Z,22.41
2023-08-29T15:40:57.017Z,22.38
2023-08-29T15:41:57.001Z,22.38
2023-08-29T15:42:57.000Z,22.87
2023-08-29T15:43:56.985Z,23.65
2023-08-29T15:44:56.975Z,24.26
2023-08-29T15:45:57.023Z,24.80
2023-08-29T15:46:56.936Z,25.42
2023-08-29T15:47:56.989Z,26.06
2023-08-29T15:48:56.920Z,26.24
2023-08-29T15:49:56.914Z,25.69
2023-08-29T15:50:56.914Z,25.97
2023-08-29T15:51:56.892Z,26.37
2023-08-29T15:52:56.913Z,26.47
2023-08-29T15:53:56.842Z,26.54
2023-08-29T15:54:56.862Z,26.36
2023-08-29T15:55:56.822Z,25.97
2023-08-29T15:56:56.842Z,25.64
2023-08-29T15:57:56.834Z,25.35
2023-08-29T15:58:56.780Z,24.98
2023-08-29T15:59:56.769Z,24.45
2023-08-29T16:00:56.756Z,24.56
2023-08-29T16:01:56.781Z,24.26
2023-08-29T16:02:56.844Z,24.44
2023-08-29T16:03:56.728Z,24.08
2023-08-29T16:04:56.731Z,24.47
2023-08-29T16:05:56.693Z,24.73
2023-08-29T16:06:56.705Z,25.35
2023-08-29T16:07:56.662Z,25.93
2023-08-29T16:08:58.550Z,26.49
2023-08-29T16:09:56.648Z,26.87
2023-08-29T16:10:56.650Z,26.87
2023-08-29T16:11:56.620Z,26.49
2023-08-29T16:12:56.624Z,26.43
2023-08-29T16:13:56.587Z,25.71
2023-08-29T16:14:56.572Z,25.09
2023-08-29T16:15:56.575Z,24.50
2023-08-29T16:16:56.582Z,24.01
2023-08-29T16:17:56.677Z,23.58
2023-08-29T16:18:56.546Z,23.17
2023-08-29T16:19:56.506Z,22.93
2023-08-29T16:20:56.508Z,22.74
2023-08-29T16:21:56.489Z,22.53
2023-08-29T16:22:56.482Z,22.35
2023-08-29T16:23:56.464Z,22.27
2023-08-29T16:24:56.459Z,22.16
2023-08-29T16:25:56.445Z,21.95
2023-08-29T16:26:56.426Z,21.99
2023-08-29T16:27:56.410Z,22.56
2023-08-29T16:28:56.397Z,23.15
2023-08-29T16:29:56.388Z,23.70
2023-08-29T16:30:56.391Z,24.02
2023-08-29T16:31:56.353Z,24.29
2023-08-29T16:32:56.393Z,24.26
2023-08-29T16:33:56.339Z,23.85
2023-08-29T16:34:56.326Z,23.31
2023-08-29T16:35:56.298Z,22.60
2023-08-29T16:36:56.299Z,22.16
2023-08-29T16:37:56.294Z,22.17
2023-08-29T16:38:56.276Z,22.46
2023-08-29T16:39:56.262Z,22.90
2023-08-29T16:40:56.250Z,23.11
2023-08-29T16:41:56.227Z,23.02
2023-08-29T16:42:56.215Z,23.08
2023-08-29T16:43:56.214Z,23.02
2023-08-29T16:44:56.217Z,22.65
2023-08-29T16:45:56.184Z,22.38
2023-08-29T16:46:56.229Z,22.02
2023-08-29T16:47:56.187Z,21.75
2023-08-29T16:48:56.158Z,21.54
2023-08-29T16:49:56.130Z,21.42
2023-08-29T16:50:56.119Z,21.32
2023-08-29T16:51:57.673Z,21.19
2023-08-29T16:52:56.088Z,21.04
2023-08-29T16:53:56.091Z,20.98
2023-08-29T16:54:56.099Z,20.87
2023-08-29T16:55:56.059Z,20.79
2023-08-29T16:56:56.037Z,20.68
2023-08-29T16:57:57.897Z,20.61
2023-08-29T16:58:56.023Z,20.51
2023-08-29T16:59:55.989Z,20.41
2023-08-29T17:00:56.022Z,20.33
2023-08-29T17:01:55.966Z,20.27
2023-08-29T17:03:03.059Z,20.21
2023-08-29T17:03:56.127Z,20.15
2023-08-29T17:04:55.934Z,20.09
2023-08-29T17:05:55.919Z,20.06
2023-08-29T17:06:55.903Z,20.03
2023-08-29T17:07:55.906Z,19.98
2023-08-29T17:08:55.881Z,19.97
2023-08-29T17:09:55.880Z,19.97
2023-08-29T17:10:55.846Z,19.95
2023-08-29T17:11:55.860Z,19.95
2023-08-29T17:12:55.836Z,19.95
2023-08-29T17:13:55.836Z,19.93
2023-08-29T17:14:55.835Z,19.88
2023-08-29T17:15:55.828Z,19.79
2023-08-29T17:16:55.785Z,19.76
2023-08-29T17:17:55.860Z,19.80
2023-08-29T17:18:55.752Z,19.79
2023-08-29T17:19:55.745Z,19.70
2023-08-29T17:20:55.716Z,19.65
2023-08-29T17:21:55.720Z,19.61
2023-08-29T17:22:55.686Z,19.55
2023-08-29T17:23:55.683Z,19.47
2023-08-29T17:24:55.669Z,19.39
2023-08-29T17:25:55.693Z,19.32
2023-08-29T17:26:55.654Z,19.25
2023-08-29T17:27:55.654Z,19.18
2023-08-29T17:28:55.626Z,19.13
2023-08-29T17:29:55.612Z,19.06
2023-08-29T17:30:55.596Z,18.98
2023-08-29T17:31:55.597Z,18.91
2023-08-29T17:32:55.632Z,18.83
2023-08-29T17:33:55.559Z,18.74
2023-08-29T17:34:55.535Z,18.65
2023-08-29T17:35:55.546Z,18.58
2023-08-29T17:36:55.503Z,18.54
2023-08-29T17:37:55.521Z,18.46
2023-08-29T17:38:55.477Z,18.42
2023-08-29T17:39:55.492Z,18.37
2023-08-29T17:40:55.472Z,18.34
2023-08-29T17:41:55.447Z,18.28
2023-08-29T17:42:55.440Z,18.22
2023-08-29T17:43:55.426Z,18.09
2023-08-29T17:44:55.403Z,18.00
2023-08-29T17:45:55.409Z,17.91
2023-08-29T17:46:55.392Z,17.85
2023-08-29T17:47:55.430Z,17.82
2023-08-29T17:48:55.343Z,17.79
2023-08-29T17:49:55.345Z,17.79
2023-08-29T17:50:55.322Z,17.78
2023-08-29T17:51:55.310Z,17.78
2023-08-29T17:52:55.304Z,17.74
2023-08-29T17:53:55.291Z,17.70
2023-08-29T17:54:55.279Z,17.69
2023-08-29T17:55:55.263Z,17.67
2023-08-29T17:56:55.247Z,17.63
2023-08-29T17:57:55.228Z,17.57
2023-08-29T17:58:55.231Z,17.48
2023-08-29T17:59:55.290Z,17.46
2023-08-29T18:00:55.196Z,17.41
2023-08-29T18:01:55.270Z,17.36
2023-08-29T18:02:55.256Z,17.35
2023-08-29T18:03:55.185Z,17.32
2023-08-29T18:04:55.137Z,17.25
2023-08-29T18:05:56.689Z,17.18
2023-08-29T18:06:56.109Z,17.17
2023-08-29T18:07:55.106Z,17.15
2023-08-29T18:08:55.190Z,17.15
2023-08-29T18:09:55.068Z,17.13
2023-08-29T18:10:55.062Z,17.10
2023-08-29T18:11:55.059Z,17.07
2023-08-29T18:12:55.054Z,17.03
2023-08-29T18:13:55.036Z,16.99
2023-08-29T18:14:55.008Z,16.98
2023-08-29T18:15:55.038Z,16.99
2023-08-29T18:16:55.058Z,17.00
2023-08-29T18:17:55.048Z,16.99
2023-08-29T18:18:54.951Z,16.96
2023-08-29T18:19:54.938Z,16.90
2023-08-29T18:20:54.958Z,16.83
2023-08-29T18:21:54.933Z,16.77
2023-08-29T18:22:54.919Z,16.71
2023-08-29T18:23:54.894Z,16.68
2023-08-29T18:24:54.882Z,16.67
2023-08-29T18:25:54.860Z,16.63
2023-08-29T18:26:54.893Z,16.62
2023-08-29T18:27:54.871Z,16.60
2023-08-29T18:28:54.828Z,16.59
2023-08-29T18:29:54.811Z,16.55
2023-08-29T18:30:54.793Z,16.50
2023-08-29T18:31:54.836Z,16.45
2023-08-29T18:32:54.777Z,16.48
2023-08-29T18:33:54.750Z,16.44
2023-08-29T18:34:54.737Z,16.44
2023-08-29T18:35:54.732Z,16.41
2023-08-29T18:36:54.735Z,16.41
2023-08-29T18:37:54.711Z,16.40
2023-08-29T18:38:54.680Z,16.38
2023-08-29T18:39:54.682Z,16.40
2023-08-29T18:40:54.658Z,16.34
2023-08-29T18:41:54.658Z,16.30
2023-08-29T18:42:54.631Z,16.26
2023-08-29T18:43:54.641Z,16.22
2023-08-29T18:44:54.621Z,16.16
2023-08-29T18:45:54.742Z,16.14
2023-08-29T18:46:54.594Z,16.09
2023-08-29T18:47:54.603Z,16.04
2023-08-29T18:48:54.556Z,16.01
2023-08-29T18:49:54.551Z,16.00
2023-08-29T18:50:54.540Z,15.99
2023-08-29T18:51:54.519Z,15.97
2023-08-29T18:52:54.499Z,15.89
2023-08-29T18:53:54.515Z,15.86
2023-08-29T18:54:54.470Z,15.84
2023-08-29T18:55:54.481Z,15.81
2023-08-29T18:56:54.469Z,15.78
2023-08-29T18:57:54.435Z,15.79
2023-08-29T18:58:54.421Z,15.78
2023-08-29T18:59:54.421Z,15.79
2023-08-29T19:00:54.402Z,15.79
2023-08-29T19:01:54.390Z,15.78
2023-08-29T19:02:54.407Z,15.76
2023-08-29T19:03:54.361Z,15.74
2023-08-29T19:04:54.358Z,15.74
2023-08-29T19:05:54.349Z,15.72
2023-08-29T19:06:54.312Z,15.70
2023-08-29T19:07:54.303Z,15.68
2023-08-29T19:08:54.313Z,15.66
2023-08-29T19:09:54.296Z,15.64
2023-08-29T19:10:54.264Z,15.61
2023-08-29T19:11:54.246Z,15.61
2023-08-29T19:12:54.239Z,15.57
2023-08-29T19:13:54.235Z,15.56
2023-08-29T19:14:54.224Z,15.51
2023-08-29T19:15:54.217Z,15.46
2023-08-29T19:16:54.196Z,15.45
2023-08-29T19:17:54.214Z,15.41
2023-08-29T19:18:54.204Z,15.36
2023-08-29T19:19:54.156Z,15.35
2023-08-29T19:20:54.125Z,15.28
2023-08-29T19:21:54.119Z,15.26
2023-08-29T19:22:54.149Z,15.26
2023-08-29T19:23:54.599Z,15.21
2023-08-29T19:24:54.097Z,15.21
2023-08-29T19:25:54.065Z,15.19
2023-08-29T19:26:54.056Z,15.21
2023-08-29T19:27:54.044Z,15.20
2023-08-29T19:28:54.057Z,15.17
2023-08-29T19:29:54.011Z,15.12
2023-08-29T19:30:53.989Z,15.13
2023-08-29T19:31:53.989Z,15.13
2023-08-29T19:32:54.489Z,15.12
2023-08-29T19:33:53.960Z,15.13
2023-08-29T19:34:53.951Z,15.13
2023-08-29T19:35:53.935Z,15.08
2023-08-29T19:36:53.904Z,15.05
2023-08-29T19:37:53.922Z,15.06
2023-08-29T19:38:59.050Z,15.06
2023-08-29T19:39:54.869Z,15.03
2023-08-29T19:40:53.857Z,15.01
2023-08-29T19:41:53.887Z,14.95
2023-08-29T19:42:53.855Z,14.90
2023-08-29T19:43:53.828Z,14.83
2023-08-29T19:44:53.801Z,14.74
2023-08-29T19:45:53.795Z,14.71
2023-08-29T19:46:53.817Z,14.68
2023-08-29T19:47:53.810Z,14.68
2023-08-29T19:48:53.742Z,14.69
2023-08-29T19:49:53.737Z,14.67
2023-08-29T19:50:53.724Z,14.65
2023-08-29T19:51:53.723Z,14.64
2023-08-29T19:52:53.697Z,14.65
2023-08-29T19:53:53.693Z,14.62
2023-08-29T19:54:53.768Z,14.60
2023-08-29T19:55:53.677Z,14.56
2023-08-29T19:56:53.663Z,14.53
2023-08-29T19:57:53.624Z,14.54
2023-08-29T19:58:53.637Z,14.61
2023-08-29T19:59:53.605Z,14.67
2023-08-29T20:00:53.614Z,14.67
2023-08-29T20:01:53.608Z,14.65
2023-08-29T20:02:53.572Z,14.60
2023-08-29T20:03:53.559Z,14.54
2023-08-29T20:04:53.542Z,14.52
2023-08-29T20:05:53.542Z,14.49
2023-08-29T20:06:53.495Z,14.47
2023-08-29T20:07:53.886Z,14.50
2023-08-29T20:08:53.473Z,14.50
2023-08-29T20:09:53.488Z,14.47
2023-08-29T20:10:53.469Z,14.44
2023-08-29T20:11:53.437Z,14.43
2023-08-29T20:12:53.431Z,14.46
2023-08-29T20:13:53.426Z,14.47
2023-08-29T20:14:53.425Z,14.46
2023-08-29T20:15:53.384Z,14.43
2023-08-29T20:16:53.780Z,14.39
2023-08-29T20:17:53.400Z,14.35
2023-08-29T20:18:53.341Z,14.32
2023-08-29T20:19:53.365Z,14.31
2023-08-29T20:20:53.331Z,14.28
2023-08-29T20:21:53.306Z,14.31
2023-08-29T20:22:53.285Z,14.28
2023-08-29T20:24:02.007Z,14.65
2023-08-29T20:24:54.268Z,15.42
2023-08-29T20:25:53.252Z,15.54
2023-08-29T20:26:53.232Z,15.96
2023-08-29T20:27:53.241Z,16.12
2023-08-29T20:28:53.212Z,16.40
2023-08-29T20:29:53.212Z,16.59
2023-08-29T20:30:53.217Z,16.41
2023-08-29T20:31:53.177Z,16.18
2023-08-29T20:32:53.216Z,15.93
2023-08-29T20:33:53.161Z,15.67
2023-08-29T20:34:53.151Z,15.52
2023-08-29T20:35:53.114Z,15.33
2023-08-29T20:36:53.117Z,15.15
2023-08-29T20:37:53.083Z,14.99
2023-08-29T20:38:53.084Z,14.88
2023-08-29T20:39:53.068Z,14.75
2023-08-29T20:40:53.044Z,14.64
2023-08-29T20:41:53.039Z,14.54
2023-08-29T20:42:53.075Z,14.52
2023-08-29T20:43:53.023Z,14.47
2023-08-29T20:44:52.992Z,14.43
2023-08-29T20:45:52.988Z,14.38
2023-08-29T20:46:52.971Z,14.35
2023-08-29T20:47:52.980Z,14.32
2023-08-29T20:48:52.990Z,14.24
2023-08-29T20:49:52.921Z,14.20
2023-08-29T20:50:52.906Z,14.21
2023-08-29T20:51:52.893Z,14.20
2023-08-29T20:52:52.894Z,14.24
2023-08-29T20:53:52.880Z,14.20
2023-08-29T20:54:52.857Z,14.19
2023-08-29T20:55:52.844Z,14.14
2023-08-29T20:56:52.823Z,14.13
2023-08-29T20:57:52.826Z,14.10
2023-08-29T20:58:52.812Z,14.10
2023-08-29T20:59:52.791Z,14.09
